sensor_id;sensor_type;location;lat;lon;timestamp;temperature;humidity
74873;HTU21D;65883;44.726;37.764;2022-12-18T00:01:01;21.97;53.91
74873;HTU21D;65883;44.726;37.764;2022-12-18T00:02:06;21.97;53.89
74873;HTU21D;65883;44.726;37.764;2022-12-18T00:03:07;21.97;53.89
74873;HTU21D;65883;44.726;37.764;2022-12-18T00:04:23;21.96;53.88
74873;HTU21D;65883;44.726;37.764;2022-12-18T00:05:25;21.95;53.90
74873;HTU21D;65883;44.726;37.764;2022-12-18T00:06:27;21.96;53.91
74873;HTU21D;65883;44.726;37.764;2022-12-18T00:07:28;21.95;53.94
74873;HTU21D;65883;44.726;37.764;2022-12-18T00:08:29;21.94;53.93
74873;HTU21D;65883;44.726;37.764;2022-12-18T00:09:30;21.95;53.90
74873;HTU21D;65883;44.726;37.764;2022-12-18T00:10:31;21.95;53.92
74873;HTU21D;65883;44.726;37.764;2022-12-18T00:11:32;21.96;53.91
74873;HTU21D;65883;44.726;37.764;2022-12-18T00:12:33;21.94;53.90
74873;HTU21D;65883;44.726;37.764;2022-12-18T00:13:34;21.96;53.88
74873;HTU21D;65883;44.726;37.764;2022-12-18T00:14:36;21.96;53.88
74873;HTU21D;65883;44.726;37.764;2022-12-18T00:15:38;21.95;53.91
74873;HTU21D;65883;44.726;37.764;2022-12-18T00:16:39;21.95;53.91
74873;HTU21D;65883;44.726;37.764;2022-12-18T00:17:40;21.95;53.89
74873;HTU21D;65883;44.726;37.764;2022-12-18T00:18:42;21.96;53.89
74873;HTU21D;65883;44.726;37.764;2022-12-18T00:19:43;21.95;53.89
74873;HTU21D;65883;44.726;37.764;2022-12-18T00:20:44;21.95;53.91
74873;HTU21D;65883;44.726;37.764;2022-12-18T00:21:45;21.95;53.92
74873;HTU21D;65883;44.726;37.764;2022-12-18T00:22:46;21.96;53.94
74873;HTU21D;65883;44.726;37.764;2022-12-18T00:23:48;21.95;53.94
74873;HTU21D;65883;44.726;37.764;2022-12-18T00:24:49;21.96;53.92
74873;HTU21D;65883;44.726;37.764;2022-12-18T00:25:50;21.95;53.91
74873;HTU21D;65883;44.726;37.764;2022-12-18T00:26:51;21.96;53.91
74873;HTU21D;65883;44.726;37.764;2022-12-18T00:27:52;21.95;53.91
74873;HTU21D;65883;44.726;37.764;2022-12-18T00:28:54;21.97;53.91
74873;HTU21D;65883;44.726;37.764;2022-12-18T00:29:56;21.95;53.91
74873;HTU21D;65883;44.726;37.764;2022-12-18T00:31:08;21.96;53.91
74873;HTU21D;65883;44.726;37.764;2022-12-18T00:32:09;21.96;53.91
74873;HTU21D;65883;44.726;37.764;2022-12-18T00:33:10;21.96;53.91
74873;HTU21D;65883;44.726;37.764;2022-12-18T00:34:12;21.97;53.88
74873;HTU21D;65883;44.726;37.764;2022-12-18T00:35:14;21.97;53.87
74873;HTU21D;65883;44.726;37.764;2022-12-18T00:36:18;21.96;53.88
74873;HTU21D;65883;44.726;37.764;2022-12-18T00:37:19;20.41;53.90
74873;HTU21D;65883;44.726;37.764;2022-12-18T00:38:25;21.95;53.95
74873;HTU21D;65883;44.726;37.764;2022-12-18T00:39:26;21.95;53.95
74873;HTU21D;65883;44.726;37.764;2022-12-18T00:40:27;21.96;53.91
74873;HTU21D;65883;44.726;37.764;2022-12-18T00:41:28;21.96;53.90
74873;HTU21D;65883;44.726;37.764;2022-12-18T00:42:48;21.96;53.89
74873;HTU21D;65883;44.726;37.764;2022-12-18T00:43:57;21.96;53.88
74873;HTU21D;65883;44.726;37.764;2022-12-18T00:44:58;21.95;53.91
74873;HTU21D;65883;44.726;37.764;2022-12-18T00:45:59;21.95;53.92
74873;HTU21D;65883;44.726;37.764;2022-12-18T00:47:00;21.95;53.90
74873;HTU21D;65883;44.726;37.764;2022-12-18T00:48:01;21.96;53.91
74873;HTU21D;65883;44.726;37.764;2022-12-18T00:49:03;21.95;53.90
74873;HTU21D;65883;44.726;37.764;2022-12-18T00:50:04;21.95;53.97
74873;HTU21D;65883;44.726;37.764;2022-12-18T00:51:05;21.96;53.98
74873;HTU21D;65883;44.726;37.764;2022-12-18T00:52:07;21.97;53.97
74873;HTU21D;65883;44.726;37.764;2022-12-18T00:53:08;21.88;54.17
74873;HTU21D;65883;44.726;37.764;2022-12-18T00:54:11;21.80;54.20
74873;HTU21D;65883;44.726;37.764;2022-12-18T00:55:12;21.75;54.17
74873;HTU21D;65883;44.726;37.764;2022-12-18T00:56:13;21.70;54.17
74873;HTU21D;65883;44.726;37.764;2022-12-18T00:57:14;21.63;54.19
74873;HTU21D;65883;44.726;37.764;2022-12-18T00:58:16;21.57;54.24
74873;HTU21D;65883;44.726;37.764;2022-12-18T00:59:17;21.49;54.31
74873;HTU21D;65883;44.726;37.764;2022-12-18T01:00:18;21.43;54.37
74873;HTU21D;65883;44.726;37.764;2022-12-18T01:01:19;21.34;54.46
74873;HTU21D;65883;44.726;37.764;2022-12-18T01:02:20;21.28;54.54
74873;HTU21D;65883;44.726;37.764;2022-12-18T01:03:21;21.20;54.62
74873;HTU21D;65883;44.726;37.764;2022-12-18T01:04:21;21.14;54.71
74873;HTU21D;65883;44.726;37.764;2022-12-18T01:05:22;21.06;54.78
74873;HTU21D;65883;44.726;37.764;2022-12-18T01:06:23;21.01;54.87
74873;HTU21D;65883;44.726;37.764;2022-12-18T01:07:23;20.94;54.92
74873;HTU21D;65883;44.726;37.764;2022-12-18T01:08:24;20.90;55.00
74873;HTU21D;65883;44.726;37.764;2022-12-18T01:09:25;20.86;55.06
74873;HTU21D;65883;44.726;37.764;2022-12-18T01:10:26;20.79;55.12
74873;HTU21D;65883;44.726;37.764;2022-12-18T01:11:31;20.75;55.17
74873;HTU21D;65883;44.726;37.764;2022-12-18T01:12:32;20.70;55.23
74873;HTU21D;65883;44.726;37.764;2022-12-18T01:13:33;20.66;55.27
74873;HTU21D;65883;44.726;37.764;2022-12-18T01:14:34;20.62;55.32
74873;HTU21D;65883;44.726;37.764;2022-12-18T01:15:35;20.59;55.36
74873;HTU21D;65883;44.726;37.764;2022-12-18T01:16:36;20.55;55.41
74873;HTU21D;65883;44.726;37.764;2022-12-18T01:17:38;20.53;55.44
74873;HTU21D;65883;44.726;37.764;2022-12-18T01:18:39;20.49;55.49
74873;HTU21D;65883;44.726;37.764;2022-12-18T01:19:40;20.45;55.51
74873;HTU21D;65883;44.726;37.764;2022-12-18T01:20:44;20.43;55.56
74873;HTU21D;65883;44.726;37.764;2022-12-18T01:21:45;20.40;55.58
74873;HTU21D;65883;44.726;37.764;2022-12-18T01:22:45;20.37;55.61
74873;HTU21D;65883;44.726;37.764;2022-12-18T01:23:47;20.34;55.64
74873;HTU21D;65883;44.726;37.764;2022-12-18T01:24:51;20.31;55.67
74873;HTU21D;65883;44.726;37.764;2022-12-18T01:25:51;20.29;55.71
74873;HTU21D;65883;44.726;37.764;2022-12-18T01:26:52;20.27;55.71
74873;HTU21D;65883;44.726;37.764;2022-12-18T01:27:53;20.24;55.73
74873;HTU21D;65883;44.726;37.764;2022-12-18T01:28:54;20.22;55.75
74873;HTU21D;65883;44.726;37.764;2022-12-18T01:29:56;20.20;55.78
74873;HTU21D;65883;44.726;37.764;2022-12-18T01:30:57;20.20;55.80
74873;HTU21D;65883;44.726;37.764;2022-12-18T01:31:58;20.18;55.81
74873;HTU21D;65883;44.726;37.764;2022-12-18T01:32:59;20.15;55.84
74873;HTU21D;65883;44.726;37.764;2022-12-18T01:34:00;20.15;55.84
74873;HTU21D;65883;44.726;37.764;2022-12-18T01:35:02;20.14;55.86
74873;HTU21D;65883;44.726;37.764;2022-12-18T01:36:03;20.12;55.87
74873;HTU21D;65883;44.726;37.764;2022-12-18T01:37:04;20.11;55.88
74873;HTU21D;65883;44.726;37.764;2022-12-18T01:38:05;20.11;55.90
74873;HTU21D;65883;44.726;37.764;2022-12-18T01:39:08;20.07;55.91
74873;HTU21D;65883;44.726;37.764;2022-12-18T01:40:10;20.05;55.92
74873;HTU21D;65883;44.726;37.764;2022-12-18T01:41:11;20.06;55.93
74873;HTU21D;65883;44.726;37.764;2022-12-18T01:42:12;20.05;55.95
74873;HTU21D;65883;44.726;37.764;2022-12-18T01:43:13;20.04;55.97
74873;HTU21D;65883;44.726;37.764;2022-12-18T01:45:33;20.01;55.97
74873;HTU21D;65883;44.726;37.764;2022-12-18T01:46:35;20.01;55.98
74873;HTU21D;65883;44.726;37.764;2022-12-18T01:47:49;20.00;55.99
74873;HTU21D;65883;44.726;37.764;2022-12-18T01:48:52;19.98;56.01
74873;HTU21D;65883;44.726;37.764;2022-12-18T01:49:55;19.99;56.01
74873;HTU21D;65883;44.726;37.764;2022-12-18T01:50:56;19.99;56.02
74873;HTU21D;65883;44.726;37.764;2022-12-18T01:51:57;19.97;56.03
74873;HTU21D;65883;44.726;37.764;2022-12-18T01:54:01;19.96;56.06
74873;HTU21D;65883;44.726;37.764;2022-12-18T01:55:02;19.96;56.06
74873;HTU21D;65883;44.726;37.764;2022-12-18T01:56:04;19.95;56.07
74873;HTU21D;65883;44.726;37.764;2022-12-18T01:57:06;19.94;56.06
74873;HTU21D;65883;44.726;37.764;2022-12-18T01:58:06;19.94;56.06
74873;HTU21D;65883;44.726;37.764;2022-12-18T01:59:07;19.95;56.07
74873;HTU21D;65883;44.726;37.764;2022-12-18T02:00:12;19.94;56.07
74873;HTU21D;65883;44.726;37.764;2022-12-18T02:01:16;19.94;56.08
74873;HTU21D;65883;44.726;37.764;2022-12-18T02:02:17;19.91;56.09
74873;HTU21D;65883;44.726;37.764;2022-12-18T02:03:19;19.92;56.10
74873;HTU21D;65883;44.726;37.764;2022-12-18T02:04:21;19.92;56.10
74873;HTU21D;65883;44.726;37.764;2022-12-18T02:06:43;19.90;56.12
74873;HTU21D;65883;44.726;37.764;2022-12-18T02:12:22;19.89;56.17
74873;HTU21D;65883;44.726;37.764;2022-12-18T02:13:30;19.88;56.17
74873;HTU21D;65883;44.726;37.764;2022-12-18T02:14:39;19.88;56.19
74873;HTU21D;65883;44.726;37.764;2022-12-18T02:16:51;19.87;56.19
74873;HTU21D;65883;44.726;37.764;2022-12-18T02:18:02;19.88;56.20
74873;HTU21D;65883;44.726;37.764;2022-12-18T02:19:08;19.87;56.21
74873;HTU21D;65883;44.726;37.764;2022-12-18T02:20:18;19.87;56.21
74873;HTU21D;65883;44.726;37.764;2022-12-18T02:27:19;19.87;56.26
74873;HTU21D;65883;44.726;37.764;2022-12-18T02:28:20;19.85;56.25
74873;HTU21D;65883;44.726;37.764;2022-12-18T02:30:06;19.85;56.29
74873;HTU21D;65883;44.726;37.764;2022-12-18T02:30:48;19.85;56.29
74873;HTU21D;65883;44.726;37.764;2022-12-18T02:31:51;19.85;56.30
74873;HTU21D;65883;44.726;37.764;2022-12-18T02:32:53;19.85;56.29
74873;HTU21D;65883;44.726;37.764;2022-12-18T02:33:54;19.85;56.29
74873;HTU21D;65883;44.726;37.764;2022-12-18T02:34:57;19.85;56.31
74873;HTU21D;65883;44.726;37.764;2022-12-18T02:36:00;19.85;56.31
74873;HTU21D;65883;44.726;37.764;2022-12-18T02:37:03;19.85;56.30
74873;HTU21D;65883;44.726;37.764;2022-12-18T02:38:05;19.84;56.32
74873;HTU21D;65883;44.726;37.764;2022-12-18T02:39:11;19.85;56.32
74873;HTU21D;65883;44.726;37.764;2022-12-18T02:40:18;19.85;56.34
74873;HTU21D;65883;44.726;37.764;2022-12-18T02:41:20;19.85;56.34
74873;HTU21D;65883;44.726;37.764;2022-12-18T02:42:25;19.84;56.34
74873;HTU21D;65883;44.726;37.764;2022-12-18T02:43:26;19.84;56.37
74873;HTU21D;65883;44.726;37.764;2022-12-18T02:44:28;19.83;56.37
74873;HTU21D;65883;44.726;37.764;2022-12-18T02:45:29;19.85;56.38
74873;HTU21D;65883;44.726;37.764;2022-12-18T02:46:33;19.84;56.38
74873;HTU21D;65883;44.726;37.764;2022-12-18T02:47:41;19.83;56.39
74873;HTU21D;65883;44.726;37.764;2022-12-18T02:48:43;19.85;56.39
74873;HTU21D;65883;44.726;37.764;2022-12-18T02:51:03;19.84;56.39
74873;HTU21D;65883;44.726;37.764;2022-12-18T02:53:43;19.84;56.42
74873;HTU21D;65883;44.726;37.764;2022-12-18T02:57:02;19.84;56.43
74873;HTU21D;65883;44.726;37.764;2022-12-18T02:58:14;19.83;56.45
74873;HTU21D;65883;44.726;37.764;2022-12-18T02:59:19;19.84;56.45
74873;HTU21D;65883;44.726;37.764;2022-12-18T03:00:38;19.83;56.46
74873;HTU21D;65883;44.726;37.764;2022-12-18T03:01:49;19.84;56.48
74873;HTU21D;65883;44.726;37.764;2022-12-18T03:04:04;19.83;56.49
74873;HTU21D;65883;44.726;37.764;2022-12-18T03:05:19;19.83;56.48
74873;HTU21D;65883;44.726;37.764;2022-12-18T03:06:26;19.83;56.51
74873;HTU21D;65883;44.726;37.764;2022-12-18T03:07:36;19.82;56.52
74873;HTU21D;65883;44.726;37.764;2022-12-18T03:08:43;19.82;56.52
74873;HTU21D;65883;44.726;37.764;2022-12-18T03:09:46;19.83;56.52
74873;HTU21D;65883;44.726;37.764;2022-12-18T03:10:53;19.83;56.53
74873;HTU21D;65883;44.726;37.764;2022-12-18T03:11:58;19.83;56.54
74873;HTU21D;65883;44.726;37.764;2022-12-18T03:13:21;19.83;56.54
74873;HTU21D;65883;44.726;37.764;2022-12-18T03:14:25;19.82;56.57
74873;HTU21D;65883;44.726;37.764;2022-12-18T03:15:36;19.83;56.57
74873;HTU21D;65883;44.726;37.764;2022-12-18T03:16:43;19.83;56.57
74873;HTU21D;65883;44.726;37.764;2022-12-18T03:17:46;19.83;56.58
74873;HTU21D;65883;44.726;37.764;2022-12-18T03:18:54;19.82;56.60
74873;HTU21D;65883;44.726;37.764;2022-12-18T03:19:58;19.83;56.60
74873;HTU21D;65883;44.726;37.764;2022-12-18T03:21:01;19.82;56.61
74873;HTU21D;65883;44.726;37.764;2022-12-18T03:22:03;19.82;56.61
74873;HTU21D;65883;44.726;37.764;2022-12-18T03:23:16;19.82;56.61
74873;HTU21D;65883;44.726;37.764;2022-12-18T03:24:21;19.82;56.62
74873;HTU21D;65883;44.726;37.764;2022-12-18T03:25:23;19.81;56.62
74873;HTU21D;65883;44.726;37.764;2022-12-18T03:26:27;19.82;56.64
74873;HTU21D;65883;44.726;37.764;2022-12-18T03:27:33;19.83;56.63
74873;HTU21D;65883;44.726;37.764;2022-12-18T03:28:51;19.81;56.65
74873;HTU21D;65883;44.726;37.764;2022-12-18T03:29:55;19.81;56.66
74873;HTU21D;65883;44.726;37.764;2022-12-18T03:31:01;19.82;56.66
74873;HTU21D;65883;44.726;37.764;2022-12-18T03:32:07;19.83;56.66
74873;HTU21D;65883;44.726;37.764;2022-12-18T03:33:14;19.82;56.66
74873;HTU21D;65883;44.726;37.764;2022-12-18T03:34:22;19.82;56.68
74873;HTU21D;65883;44.726;37.764;2022-12-18T03:35:26;19.82;56.68
74873;HTU21D;65883;44.726;37.764;2022-12-18T03:36:30;19.82;56.68
74873;HTU21D;65883;44.726;37.764;2022-12-18T03:37:31;19.82;56.70
74873;HTU21D;65883;44.726;37.764;2022-12-18T03:38:32;19.82;56.70
74873;HTU21D;65883;44.726;37.764;2022-12-18T03:39:33;19.84;56.71
74873;HTU21D;65883;44.726;37.764;2022-12-18T03:41:05;19.82;56.70
74873;HTU21D;65883;44.726;37.764;2022-12-18T03:42:24;19.83;56.71
74873;HTU21D;65883;44.726;37.764;2022-12-18T03:45:00;19.83;56.74
74873;HTU21D;65883;44.726;37.764;2022-12-18T03:46:08;19.83;56.74
74873;HTU21D;65883;44.726;37.764;2022-12-18T03:47:14;19.83;56.74
74873;HTU21D;65883;44.726;37.764;2022-12-18T03:49:41;19.83;56.75
74873;HTU21D;65883;44.726;37.764;2022-12-18T03:50:52;19.83;56.77
74873;HTU21D;65883;44.726;37.764;2022-12-18T03:54:08;19.83;56.78
74873;HTU21D;65883;44.726;37.764;2022-12-18T03:55:15;19.83;56.77
74873;HTU21D;65883;44.726;37.764;2022-12-18T03:56:17;19.83;56.78
74873;HTU21D;65883;44.726;37.764;2022-12-18T03:57:19;19.83;56.79
74873;HTU21D;65883;44.726;37.764;2022-12-18T03:58:24;19.82;56.79
74873;HTU21D;65883;44.726;37.764;2022-12-18T03:59:37;19.84;56.81
74873;HTU21D;65883;44.726;37.764;2022-12-18T04:00:39;19.82;56.81
74873;HTU21D;65883;44.726;37.764;2022-12-18T04:01:45;19.83;56.82
74873;HTU21D;65883;44.726;37.764;2022-12-18T04:02:51;19.82;56.83
74873;HTU21D;65883;44.726;37.764;2022-12-18T04:03:58;19.83;56.84
74873;HTU21D;65883;44.726;37.764;2022-12-18T04:05:00;19.84;56.84
74873;HTU21D;65883;44.726;37.764;2022-12-18T04:06:02;19.83;56.83
74873;HTU21D;65883;44.726;37.764;2022-12-18T04:07:04;19.84;56.84
74873;HTU21D;65883;44.726;37.764;2022-12-18T04:08:07;19.84;56.83
74873;HTU21D;65883;44.726;37.764;2022-12-18T04:09:11;19.83;56.86
74873;HTU21D;65883;44.726;37.764;2022-12-18T04:10:17;19.83;56.87
74873;HTU21D;65883;44.726;37.764;2022-12-18T04:11:19;19.83;56.87
74873;HTU21D;65883;44.726;37.764;2022-12-18T04:12:24;19.84;56.86
74873;HTU21D;65883;44.726;37.764;2022-12-18T04:13:29;19.83;56.87
74873;HTU21D;65883;44.726;37.764;2022-12-18T04:14:31;19.84;56.89
74873;HTU21D;65883;44.726;37.764;2022-12-18T04:15:38;19.83;56.90
74873;HTU21D;65883;44.726;37.764;2022-12-18T04:16:44;19.83;56.90
74873;HTU21D;65883;44.726;37.764;2022-12-18T04:17:48;19.83;56.90
74873;HTU21D;65883;44.726;37.764;2022-12-18T04:18:52;19.83;56.90
74873;HTU21D;65883;44.726;37.764;2022-12-18T04:19:54;19.83;56.90
74873;HTU21D;65883;44.726;37.764;2022-12-18T04:20:55;19.83;56.92
74873;HTU21D;65883;44.726;37.764;2022-12-18T04:21:56;19.83;56.91
74873;HTU21D;65883;44.726;37.764;2022-12-18T04:22:57;19.83;56.93
74873;HTU21D;65883;44.726;37.764;2022-12-18T04:23:58;19.82;56.94
74873;HTU21D;65883;44.726;37.764;2022-12-18T04:24:59;19.83;56.95
74873;HTU21D;65883;44.726;37.764;2022-12-18T04:26:08;19.83;56.97
74873;HTU21D;65883;44.726;37.764;2022-12-18T04:27:21;19.83;56.96
74873;HTU21D;65883;44.726;37.764;2022-12-18T04:28:24;19.82;56.96
74873;HTU21D;65883;44.726;37.764;2022-12-18T04:29:25;19.83;56.97
74873;HTU21D;65883;44.726;37.764;2022-12-18T04:30:26;19.84;56.97
74873;HTU21D;65883;44.726;37.764;2022-12-18T04:31:27;19.84;56.97
74873;HTU21D;65883;44.726;37.764;2022-12-18T04:32:28;19.84;56.98
74873;HTU21D;65883;44.726;37.764;2022-12-18T04:33:29;19.83;56.97
74873;HTU21D;65883;44.726;37.764;2022-12-18T04:34:30;19.84;56.96
74873;HTU21D;65883;44.726;37.764;2022-12-18T04:35:31;19.85;56.96
74873;HTU21D;65883;44.726;37.764;2022-12-18T04:36:33;19.85;56.95
74873;HTU21D;65883;44.726;37.764;2022-12-18T04:37:34;19.87;56.96
74873;HTU21D;65883;44.726;37.764;2022-12-18T04:38:34;19.85;56.96
74873;HTU21D;65883;44.726;37.764;2022-12-18T04:39:41;19.86;56.98
74873;HTU21D;65883;44.726;37.764;2022-12-18T04:40:48;19.84;56.99
74873;HTU21D;65883;44.726;37.764;2022-12-18T04:41:56;19.85;57.00
74873;HTU21D;65883;44.726;37.764;2022-12-18T04:43:00;19.85;57.00
74873;HTU21D;65883;44.726;37.764;2022-12-18T04:44:01;19.83;57.00
74873;HTU21D;65883;44.726;37.764;2022-12-18T04:45:01;19.84;57.01
74873;HTU21D;65883;44.726;37.764;2022-12-18T04:46:03;19.84;57.02
74873;HTU21D;65883;44.726;37.764;2022-12-18T04:47:04;19.84;57.02
74873;HTU21D;65883;44.726;37.764;2022-12-18T04:48:05;19.84;57.03
74873;HTU21D;65883;44.726;37.764;2022-12-18T04:49:06;19.83;57.04
74873;HTU21D;65883;44.726;37.764;2022-12-18T04:50:06;19.83;57.04
74873;HTU21D;65883;44.726;37.764;2022-12-18T04:51:07;19.83;57.06
74873;HTU21D;65883;44.726;37.764;2022-12-18T04:52:08;19.83;57.06
74873;HTU21D;65883;44.726;37.764;2022-12-18T04:53:09;19.82;57.07
74873;HTU21D;65883;44.726;37.764;2022-12-18T04:54:10;19.83;57.07
74873;HTU21D;65883;44.726;37.764;2022-12-18T04:55:10;19.83;57.09
74873;HTU21D;65883;44.726;37.764;2022-12-18T04:56:12;19.83;57.08
74873;HTU21D;65883;44.726;37.764;2022-12-18T04:57:13;19.83;57.09
74873;HTU21D;65883;44.726;37.764;2022-12-18T04:58:14;19.81;57.10
74873;HTU21D;65883;44.726;37.764;2022-12-18T04:59:15;19.82;57.10
74873;HTU21D;65883;44.726;37.764;2022-12-18T05:00:16;19.82;57.10
74873;HTU21D;65883;44.726;37.764;2022-12-18T05:01:17;19.81;57.12
74873;HTU21D;65883;44.726;37.764;2022-12-18T05:02:18;19.82;57.12
74873;HTU21D;65883;44.726;37.764;2022-12-18T05:03:19;19.82;57.12
74873;HTU21D;65883;44.726;37.764;2022-12-18T05:04:19;19.81;57.12
74873;HTU21D;65883;44.726;37.764;2022-12-18T05:05:20;19.81;57.13
74873;HTU21D;65883;44.726;37.764;2022-12-18T05:06:21;19.81;57.15
74873;HTU21D;65883;44.726;37.764;2022-12-18T05:07:21;19.80;57.13
74873;HTU21D;65883;44.726;37.764;2022-12-18T05:08:22;19.81;57.16
74873;HTU21D;65883;44.726;37.764;2022-12-18T05:09:23;19.82;57.16
74873;HTU21D;65883;44.726;37.764;2022-12-18T05:10:24;19.81;57.16
74873;HTU21D;65883;44.726;37.764;2022-12-18T05:11:25;19.81;57.17
74873;HTU21D;65883;44.726;37.764;2022-12-18T05:12:25;19.81;57.17
74873;HTU21D;65883;44.726;37.764;2022-12-18T05:13:27;19.79;57.18
74873;HTU21D;65883;44.726;37.764;2022-12-18T05:14:27;19.80;57.18
74873;HTU21D;65883;44.726;37.764;2022-12-18T05:15:30;19.80;57.19
74873;HTU21D;65883;44.726;37.764;2022-12-18T05:16:31;19.79;57.19
74873;HTU21D;65883;44.726;37.764;2022-12-18T05:17:32;19.80;57.19
74873;HTU21D;65883;44.726;37.764;2022-12-18T05:18:33;19.80;57.21
74873;HTU21D;65883;44.726;37.764;2022-12-18T05:19:33;19.80;57.19
74873;HTU21D;65883;44.726;37.764;2022-12-18T05:20:34;19.80;57.20
74873;HTU21D;65883;44.726;37.764;2022-12-18T05:21:35;19.80;57.21
74873;HTU21D;65883;44.726;37.764;2022-12-18T05:22:36;19.80;57.22
74873;HTU21D;65883;44.726;37.764;2022-12-18T05:23:36;19.80;57.22
74873;HTU21D;65883;44.726;37.764;2022-12-18T05:24:37;19.80;57.21
74873;HTU21D;65883;44.726;37.764;2022-12-18T05:25:38;19.77;57.22
74873;HTU21D;65883;44.726;37.764;2022-12-18T05:26:39;19.79;57.22
74873;HTU21D;65883;44.726;37.764;2022-12-18T05:27:40;19.80;57.23
74873;HTU21D;65883;44.726;37.764;2022-12-18T05:28:41;19.79;57.23
74873;HTU21D;65883;44.726;37.764;2022-12-18T05:29:41;19.80;57.24
74873;HTU21D;65883;44.726;37.764;2022-12-18T05:30:42;19.79;57.23
74873;HTU21D;65883;44.726;37.764;2022-12-18T05:31:43;19.79;57.24
74873;HTU21D;65883;44.726;37.764;2022-12-18T05:32:44;19.79;57.26
74873;HTU21D;65883;44.726;37.764;2022-12-18T05:33:44;19.77;57.26
74873;HTU21D;65883;44.726;37.764;2022-12-18T05:34:45;19.80;57.25
74873;HTU21D;65883;44.726;37.764;2022-12-18T05:35:53;19.80;57.26
74873;HTU21D;65883;44.726;37.764;2022-12-18T05:36:54;19.79;57.26
74873;HTU21D;65883;44.726;37.764;2022-12-18T05:37:54;19.80;57.27
74873;HTU21D;65883;44.726;37.764;2022-12-18T05:38:55;19.79;57.28
74873;HTU21D;65883;44.726;37.764;2022-12-18T05:39:56;19.79;57.28
74873;HTU21D;65883;44.726;37.764;2022-12-18T05:40:57;19.79;57.29
74873;HTU21D;65883;44.726;37.764;2022-12-18T05:41:58;19.77;57.28
74873;HTU21D;65883;44.726;37.764;2022-12-18T05:42:58;19.79;57.29
74873;HTU21D;65883;44.726;37.764;2022-12-18T05:43:59;19.77;57.29
74873;HTU21D;65883;44.726;37.764;2022-12-18T05:45:00;19.79;57.27
74873;HTU21D;65883;44.726;37.764;2022-12-18T05:46:07;19.79;57.29
74873;HTU21D;65883;44.726;37.764;2022-12-18T05:47:09;19.80;57.29
74873;HTU21D;65883;44.726;37.764;2022-12-18T05:48:10;19.79;57.29
74873;HTU21D;65883;44.726;37.764;2022-12-18T05:49:12;19.80;57.31
74873;HTU21D;65883;44.726;37.764;2022-12-18T05:50:12;19.79;57.31
74873;HTU21D;65883;44.726;37.764;2022-12-18T05:51:14;19.80;57.30
74873;HTU21D;65883;44.726;37.764;2022-12-18T05:52:16;19.80;57.31
74873;HTU21D;65883;44.726;37.764;2022-12-18T05:53:17;19.79;57.31
74873;HTU21D;65883;44.726;37.764;2022-12-18T05:54:19;19.79;57.32
74873;HTU21D;65883;44.726;37.764;2022-12-18T05:55:20;19.80;57.32
74873;HTU21D;65883;44.726;37.764;2022-12-18T05:56:21;19.77;57.32
74873;HTU21D;65883;44.726;37.764;2022-12-18T05:57:22;19.79;57.32
74873;HTU21D;65883;44.726;37.764;2022-12-18T05:58:22;19.79;57.33
74873;HTU21D;65883;44.726;37.764;2022-12-18T05:59:23;19.79;57.33
74873;HTU21D;65883;44.726;37.764;2022-12-18T06:00:24;19.77;57.34
74873;HTU21D;65883;44.726;37.764;2022-12-18T06:01:25;19.79;57.35
74873;HTU21D;65883;44.726;37.764;2022-12-18T06:02:26;19.79;57.35
74873;HTU21D;65883;44.726;37.764;2022-12-18T06:03:27;19.79;57.33
74873;HTU21D;65883;44.726;37.764;2022-12-18T06:04:28;19.77;57.35
74873;HTU21D;65883;44.726;37.764;2022-12-18T06:05:35;19.77;57.36
74873;HTU21D;65883;44.726;37.764;2022-12-18T06:06:37;19.77;57.35
74873;HTU21D;65883;44.726;37.764;2022-12-18T06:07:37;19.79;57.36
74873;HTU21D;65883;44.726;37.764;2022-12-18T06:08:38;19.80;57.37
74873;HTU21D;65883;44.726;37.764;2022-12-18T06:09:39;19.79;57.36
74873;HTU21D;65883;44.726;37.764;2022-12-18T06:10:40;19.79;57.38
74873;HTU21D;65883;44.726;37.764;2022-12-18T06:11:41;19.79;57.39
74873;HTU21D;65883;44.726;37.764;2022-12-18T06:12:42;19.79;57.39
74873;HTU21D;65883;44.726;37.764;2022-12-18T06:13:42;19.79;57.39
74873;HTU21D;65883;44.726;37.764;2022-12-18T06:14:43;19.80;57.39
74873;HTU21D;65883;44.726;37.764;2022-12-18T06:15:44;19.79;57.40
74873;HTU21D;65883;44.726;37.764;2022-12-18T06:16:45;19.79;57.42
74873;HTU21D;65883;44.726;37.764;2022-12-18T06:17:46;19.77;57.40
74873;HTU21D;65883;44.726;37.764;2022-12-18T06:18:46;19.79;57.42
74873;HTU21D;65883;44.726;37.764;2022-12-18T06:19:47;19.80;57.40
74873;HTU21D;65883;44.726;37.764;2022-12-18T06:20:55;19.80;57.42
74873;HTU21D;65883;44.726;37.764;2022-12-18T06:21:56;19.81;57.41
74873;HTU21D;65883;44.726;37.764;2022-12-18T06:22:59;19.79;57.42
74873;HTU21D;65883;44.726;37.764;2022-12-18T06:24:00;19.79;57.42
74873;HTU21D;65883;44.726;37.764;2022-12-18T06:25:01;19.79;57.43
74873;HTU21D;65883;44.726;37.764;2022-12-18T06:26:08;19.79;57.42
74873;HTU21D;65883;44.726;37.764;2022-12-18T06:27:09;19.77;57.43
74873;HTU21D;65883;44.726;37.764;2022-12-18T06:28:10;19.80;57.43
74873;HTU21D;65883;44.726;37.764;2022-12-18T06:29:11;19.80;57.42
74873;HTU21D;65883;44.726;37.764;2022-12-18T06:30:12;19.79;57.44
74873;HTU21D;65883;44.726;37.764;2022-12-18T06:31:13;19.80;57.44
74873;HTU21D;65883;44.726;37.764;2022-12-18T06:32:14;19.79;57.44
74873;HTU21D;65883;44.726;37.764;2022-12-18T06:33:15;19.79;57.44
74873;HTU21D;65883;44.726;37.764;2022-12-18T06:34:16;19.79;57.44
74873;HTU21D;65883;44.726;37.764;2022-12-18T06:35:17;19.80;57.45
74873;HTU21D;65883;44.726;37.764;2022-12-18T06:36:17;19.80;57.45
74873;HTU21D;65883;44.726;37.764;2022-12-18T06:37:18;19.80;57.44
74873;HTU21D;65883;44.726;37.764;2022-12-18T06:38:19;19.80;57.45
74873;HTU21D;65883;44.726;37.764;2022-12-18T06:39:20;19.81;57.47
74873;HTU21D;65883;44.726;37.764;2022-12-18T06:40:21;19.80;57.46
74873;HTU21D;65883;44.726;37.764;2022-12-18T06:41:21;19.80;57.46
74873;HTU21D;65883;44.726;37.764;2022-12-18T06:42:23;19.81;57.46
74873;HTU21D;65883;44.726;37.764;2022-12-18T06:43:23;19.80;57.47
74873;HTU21D;65883;44.726;37.764;2022-12-18T06:44:24;19.80;57.47
74873;HTU21D;65883;44.726;37.764;2022-12-18T06:45:25;19.80;57.48
74873;HTU21D;65883;44.726;37.764;2022-12-18T06:46:26;19.80;57.48
74873;HTU21D;65883;44.726;37.764;2022-12-18T06:47:27;19.81;57.49
74873;HTU21D;65883;44.726;37.764;2022-12-18T06:48:28;19.81;57.48
74873;HTU21D;65883;44.726;37.764;2022-12-18T06:49:29;19.80;57.49
74873;HTU21D;65883;44.726;37.764;2022-12-18T06:50:29;19.82;57.49
74873;HTU21D;65883;44.726;37.764;2022-12-18T06:51:30;19.80;57.50
74873;HTU21D;65883;44.726;37.764;2022-12-18T06:52:32;19.81;57.51